sensor_id;sensor_type;location;lat;lon;timestamp;P1;durP1;ratioP1;P2;durP2;ratioP2
52650;SDS011;38537;47.226;39.702;2022-10-26T00:01:19;24.58;;;19.08;;
52650;SDS011;38537;47.226;39.702;2022-10-26T00:03:47;23.02;;;16.75;;
52650;SDS011;38537;47.226;39.702;2022-10-26T00:06:18;27.50;;;20.42;;
52650;SDS011;38537;47.226;39.702;2022-10-26T00:08:47;28.08;;;18.85;;
52650;SDS011;38537;47.226;39.702;2022-10-26T00:11:16;25.38;;;19.25;;
52650;SDS011;38537;47.226;39.702;2022-10-26T00:13:45;24.02;;;17.52;;
52650;SDS011;38537;47.226;39.702;2022-10-26T00:16:23;27.90;;;19.95;;
52650;SDS011;38537;47.226;39.702;2022-10-26T00:18:52;19.42;;;14.32;;
52650;SDS011;38537;47.226;39.702;2022-10-26T00:21:20;29.88;;;19.92;;
52650;SDS011;38537;47.226;39.702;2022-10-26T00:23:47;23.95;;;18.55;;
52650;SDS011;38537;47.226;39.702;2022-10-26T00:26:14;22.33;;;17.25;;
52650;SDS011;38537;47.226;39.702;2022-10-26T00:28:42;26.77;;;19.58;;
52650;SDS011;38537;47.226;39.702;2022-10-26T00:31:13;26.95;;;17.92;;
52650;SDS011;38537;47.226;39.702;2022-10-26T00:33:42;28.63;;;19.00;;
52650;SDS011;38537;47.226;39.702;2022-10-26T00:36:10;26.70;;;19.42;;
52650;SDS011;38537;47.226;39.702;2022-10-26T00:38:40;25.83;;;18.52;;
52650;SDS011;38537;47.226;39.702;2022-10-26T00:41:15;20.67;;;16.13;;
52650;SDS011;38537;47.226;39.702;2022-10-26T00:44:37;21.38;;;16.13;;
52650;SDS011;38537;47.226;39.702;2022-10-26T00:47:08;24.25;;;16.52;;
52650;SDS011;38537;47.226;39.702;2022-10-26T00:49:38;22.38;;;15.40;;
52650;SDS011;38537;47.226;39.702;2022-10-26T00:52:06;18.60;;;14.70;;
52650;SDS011;38537;47.226;39.702;2022-10-26T00:54:34;22.52;;;17.27;;
52650;SDS011;38537;47.226;39.702;2022-10-26T00:57:02;23.00;;;17.48;;
52650;SDS011;38537;47.226;39.702;2022-10-26T00:59:30;22.42;;;16.73;;
52650;SDS011;38537;47.226;39.702;2022-10-26T01:01:57;24.60;;;17.95;;
52650;SDS011;38537;47.226;39.702;2022-10-26T01:04:25;25.83;;;17.73;;
52650;SDS011;38537;47.226;39.702;2022-10-26T01:06:53;20.30;;;16.33;;
52650;SDS011;38537;47.226;39.702;2022-10-26T01:09:23;23.58;;;16.92;;
52650;SDS011;38537;47.226;39.702;2022-10-26T01:11:51;23.77;;;16.70;;
52650;SDS011;38537;47.226;39.702;2022-10-26T01:14:19;21.48;;;17.05;;
52650;SDS011;38537;47.226;39.702;2022-10-26T01:16:51;23.17;;;17.02;;
52650;SDS011;38537;47.226;39.702;2022-10-26T01:28:04;19.65;;;15.48;;
52650;SDS011;38537;47.226;39.702;2022-10-26T01:30:39;20.85;;;14.98;;
52650;SDS011;38537;47.226;39.702;2022-10-26T01:33:18;17.88;;;12.43;;
52650;SDS011;38537;47.226;39.702;2022-10-26T01:41:31;22.73;;;17.25;;
52650;SDS011;38537;47.226;39.702;2022-10-26T01:44:13;21.95;;;15.77;;
52650;SDS011;38537;47.226;39.702;2022-10-26T01:46:44;22.40;;;16.45;;
52650;SDS011;38537;47.226;39.702;2022-10-26T01:49:16;21.85;;;16.23;;
52650;SDS011;38537;47.226;39.702;2022-10-26T01:51:49;16.42;;;12.32;;
52650;SDS011;38537;47.226;39.702;2022-10-26T01:54:16;20.75;;;16.30;;
52650;SDS011;38537;47.226;39.702;2022-10-26T01:56:45;20.95;;;16.08;;
52650;SDS011;38537;47.226;39.702;2022-10-26T01:59:18;19.73;;;15.60;;
52650;SDS011;38537;47.226;39.702;2022-10-26T02:02:04;21.60;;;16.40;;
52650;SDS011;38537;47.226;39.702;2022-10-26T02:16:07;20.40;;;15.20;;
52650;SDS011;38537;47.226;39.702;2022-10-26T02:18:45;18.67;;;15.65;;
52650;SDS011;38537;47.226;39.702;2022-10-26T02:21:40;21.35;;;15.50;;
52650;SDS011;38537;47.226;39.702;2022-10-26T02:24:14;25.30;;;16.73;;
52650;SDS011;38537;47.226;39.702;2022-10-26T02:26:43;23.15;;;16.42;;
52650;SDS011;38537;47.226;39.702;2022-10-26T02:29:14;20.50;;;15.00;;
52650;SDS011;38537;47.226;39.702;2022-10-26T02:31:45;20.95;;;16.25;;
52650;SDS011;38537;47.226;39.702;2022-10-26T02:34:17;19.65;;;14.30;;
52650;SDS011;38537;47.226;39.702;2022-10-26T02:36:50;20.58;;;14.95;;
52650;SDS011;38537;47.226;39.702;2022-10-26T02:39:22;18.63;;;13.27;;
52650;SDS011;38537;47.226;39.702;2022-10-26T02:41:52;18.75;;;14.68;;
52650;SDS011;38537;47.226;39.702;2022-10-26T02:44:28;19.63;;;14.57;;
52650;SDS011;38537;47.226;39.702;2022-10-26T02:46:58;20.55;;;14.98;;
52650;SDS011;38537;47.226;39.702;2022-10-26T02:49:27;18.77;;;13.75;;
52650;SDS011;38537;47.226;39.702;2022-10-26T02:52:06;13.95;;;10.82;;
52650;SDS011;38537;47.226;39.702;2022-10-26T02:54:43;12.60;;;9.02;;
52650;SDS011;38537;47.226;39.702;2022-10-26T02:57:25;12.10;;;9.07;;
52650;SDS011;38537;47.226;39.702;2022-10-26T02:59:57;13.65;;;11.07;;
52650;SDS011;38537;47.226;39.702;2022-10-26T03:02:26;12.27;;;9.23;;
52650;SDS011;38537;47.226;39.702;2022-10-26T03:04:55;14.32;;;9.60;;
52650;SDS011;38537;47.226;39.702;2022-10-26T03:07:33;14.45;;;10.88;;
52650;SDS011;38537;47.226;39.702;2022-10-26T03:10:00;14.00;;;10.07;;
52650;SDS011;38537;47.226;39.702;2022-10-26T03:12:28;13.75;;;10.55;;
52650;SDS011;38537;47.226;39.702;2022-10-26T03:14:57;14.13;;;10.38;;
52650;SDS011;38537;47.226;39.702;2022-10-26T03:17:24;17.55;;;13.05;;
52650;SDS011;38537;47.226;39.702;2022-10-26T03:19:51;18.80;;;13.30;;
52650;SDS011;38537;47.226;39.702;2022-10-26T03:22:19;18.90;;;13.80;;
52650;SDS011;38537;47.226;39.702;2022-10-26T03:24:46;14.75;;;11.00;;
52650;SDS011;38537;47.226;39.702;2022-10-26T03:27:13;20.52;;;13.73;;
52650;SDS011;38537;47.226;39.702;2022-10-26T03:29:41;20.10;;;13.02;;
52650;SDS011;38537;47.226;39.702;2022-10-26T03:32:09;16.35;;;11.13;;
52650;SDS011;38537;47.226;39.702;2022-10-26T03:34:36;18.92;;;12.00;;
52650;SDS011;38537;47.226;39.702;2022-10-26T03:37:03;18.92;;;13.23;;
52650;SDS011;38537;47.226;39.702;2022-10-26T03:39:30;17.58;;;13.70;;
52650;SDS011;38537;47.226;39.702;2022-10-26T03:41:58;19.85;;;13.38;;
52650;SDS011;38537;47.226;39.702;2022-10-26T03:44:26;15.27;;;12.20;;
52650;SDS011;38537;47.226;39.702;2022-10-26T03:46:53;18.13;;;13.00;;
52650;SDS011;38537;47.226;39.702;2022-10-26T03:49:20;14.52;;;11.32;;
52650;SDS011;38537;47.226;39.702;2022-10-26T03:54:47;16.77;;;11.20;;
52650;SDS011;38537;47.226;39.702;2022-10-26T03:57:14;16.88;;;11.30;;
52650;SDS011;38537;47.226;39.702;2022-10-26T03:59:42;16.60;;;12.85;;
52650;SDS011;38537;47.226;39.702;2022-10-26T04:02:09;16.35;;;11.85;;
52650;SDS011;38537;47.226;39.702;2022-10-26T04:04:37;22.38;;;13.93;;
52650;SDS011;38537;47.226;39.702;2022-10-26T04:07:06;19.00;;;13.30;;
52650;SDS011;38537;47.226;39.702;2022-10-26T04:09:33;19.00;;;12.30;;
52650;SDS011;38537;47.226;39.702;2022-10-26T04:12:00;18.75;;;12.82;;
52650;SDS011;38537;47.226;39.702;2022-10-26T04:14:28;12.85;;;10.05;;
52650;SDS011;38537;47.226;39.702;2022-10-26T04:16:55;17.70;;;12.02;;
52650;SDS011;38537;47.226;39.702;2022-10-26T04:19:25;15.45;;;10.65;;
52650;SDS011;38537;47.226;39.702;2022-10-26T04:21:53;15.18;;;10.15;;
52650;SDS011;38537;47.226;39.702;2022-10-26T04:24:20;16.25;;;12.57;;
52650;SDS011;38537;47.226;39.702;2022-10-26T04:26:47;18.23;;;12.18;;
52650;SDS011;38537;47.226;39.702;2022-10-26T04:29:15;16.63;;;11.38;;
52650;SDS011;38537;47.226;39.702;2022-10-26T04:31:42;14.80;;;11.50;;
52650;SDS011;38537;47.226;39.702;2022-10-26T04:34:09;21.05;;;13.07;;
52650;SDS011;38537;47.226;39.702;2022-10-26T04:36:38;15.50;;;11.52;;
52650;SDS011;38537;47.226;39.702;2022-10-26T04:39:06;20.30;;;13.27;;
52650;SDS011;38537;47.226;39.702;2022-10-26T04:41:34;18.10;;;13.52;;
52650;SDS011;38537;47.226;39.702;2022-10-26T04:44:01;17.30;;;11.82;;
52650;SDS011;38537;47.226;39.702;2022-10-26T04:46:28;19.02;;;12.57;;
52650;SDS011;38537;47.226;39.702;2022-10-26T04:48:57;21.10;;;13.32;;
52650;SDS011;38537;47.226;39.702;2022-10-26T04:51:25;20.05;;;12.38;;
52650;SDS011;38537;47.226;39.702;2022-10-26T04:53:53;17.33;;;11.90;;
52650;SDS011;38537;47.226;39.702;2022-10-26T04:56:23;16.90;;;11.38;;
52650;SDS011;38537;47.226;39.702;2022-10-26T04:58:54;16.83;;;12.13;;
52650;SDS011;38537;47.226;39.702;2022-10-26T05:01:22;18.90;;;12.68;;
52650;SDS011;38537;47.226;39.702;2022-10-26T05:03:51;14.20;;;10.27;;
52650;SDS011;38537;47.226;39.702;2022-10-26T05:06:20;18.73;;;12.40;;
52650;SDS011;38537;47.226;39.702;2022-10-26T05:08:49;15.68;;;12.02;;
52650;SDS011;38537;47.226;39.702;2022-10-26T05:11:16;18.10;;;11.90;;
52650;SDS011;38537;47.226;39.702;2022-10-26T05:13:45;16.25;;;11.80;;
52650;SDS011;38537;47.226;39.702;2022-10-26T05:16:14;15.48;;;10.15;;
52650;SDS011;38537;47.226;39.702;2022-10-26T05:18:46;16.23;;;10.90;;
52650;SDS011;38537;47.226;39.702;2022-10-26T05:21:15;16.38;;;12.23;;
52650;SDS011;38537;47.226;39.702;2022-10-26T05:23:49;16.58;;;10.43;;
52650;SDS011;38537;47.226;39.702;2022-10-26T05:26:22;14.85;;;10.82;;
52650;SDS011;38537;47.226;39.702;2022-10-26T05:28:52;14.93;;;10.98;;
52650;SDS011;38537;47.226;39.702;2022-10-26T05:31:20;18.75;;;12.48;;
52650;SDS011;38537;47.226;39.702;2022-10-26T05:33:48;15.25;;;10.95;;
52650;SDS011;38537;47.226;39.702;2022-10-26T05:36:16;17.58;;;11.90;;
52650;SDS011;38537;47.226;39.702;2022-10-26T05:38:44;19.02;;;12.85;;
52650;SDS011;38537;47.226;39.702;2022-10-26T05:41:12;14.50;;;11.20;;
52650;SDS011;38537;47.226;39.702;2022-10-26T05:43:40;14.32;;;9.10;;
52650;SDS011;38537;47.226;39.702;2022-10-26T05:46:07;16.13;;;11.10;;
52650;SDS011;38537;47.226;39.702;2022-10-26T05:48:34;14.73;;;9.30;;
52650;SDS011;38537;47.226;39.702;2022-10-26T05:51:02;11.25;;;7.97;;
52650;SDS011;38537;47.226;39.702;2022-10-26T05:53:33;18.67;;;13.15;;
52650;SDS011;38537;47.226;39.702;2022-10-26T05:56:00;15.27;;;9.80;;
52650;SDS011;38537;47.226;39.702;2022-10-26T05:58:32;13.95;;;9.98;;
52650;SDS011;38537;47.226;39.702;2022-10-26T06:03:46;17.88;;;9.30;;
52650;SDS011;38537;47.226;39.702;2022-10-26T06:06:16;17.45;;;11.02;;
52650;SDS011;38537;47.226;39.702;2022-10-26T06:08:44;14.65;;;8.80;;
52650;SDS011;38537;47.226;39.702;2022-10-26T06:11:12;14.77;;;8.85;;
52650;SDS011;38537;47.226;39.702;2022-10-26T06:13:39;12.57;;;8.77;;
52650;SDS011;38537;47.226;39.702;2022-10-26T06:27:14;11.90;;;8.88;;
52650;SDS011;38537;47.226;39.702;2022-10-26T06:29:54;13.13;;;9.60;;
52650;SDS011;38537;47.226;39.702;2022-10-26T06:32:23;14.88;;;10.85;;
52650;SDS011;38537;47.226;39.702;2022-10-26T06:34:56;16.83;;;11.70;;
52650;SDS011;38537;47.226;39.702;2022-10-26T06:37:37;17.90;;;12.07;;
52650;SDS011;38537;47.226;39.702;2022-10-26T06:40:08;20.40;;;12.63;;
52650;SDS011;38537;47.226;39.702;2022-10-26T06:42:37;18.83;;;11.90;;
52650;SDS011;38537;47.226;39.702;2022-10-26T06:45:05;17.50;;;12.18;;
52650;SDS011;38537;47.226;39.702;2022-10-26T06:47:39;15.95;;;12.05;;
52650;SDS011;38537;47.226;39.702;2022-10-26T06:53:08;18.40;;;11.90;;
52650;SDS011;38537;47.226;39.702;2022-10-26T06:55:49;14.90;;;10.97;;
52650;SDS011;38537;47.226;39.702;2022-10-26T06:58:20;14.70;;;10.43;;
52650;SDS011;38537;47.226;39.702;2022-10-26T07:00:52;19.35;;;12.80;;
52650;SDS011;38537;47.226;39.702;2022-10-26T07:03:21;16.45;;;11.32;;
52650;SDS011;38537;47.226;39.702;2022-10-26T07:05:49;16.40;;;11.30;;
52650;SDS011;38537;47.226;39.702;2022-10-26T07:08:17;18.73;;;11.75;;
52650;SDS011;38537;47.226;39.702;2022-10-26T07:10:47;15.20;;;10.70;;
52650;SDS011;38537;47.226;39.702;2022-10-26T07:13:14;17.23;;;11.63;;
52650;SDS011;38537;47.226;39.702;2022-10-26T07:15:42;15.00;;;11.35;;
52650;SDS011;38537;47.226;39.702;2022-10-26T07:18:10;16.05;;;11.27;;
52650;SDS011;38537;47.226;39.702;2022-10-26T07:20:38;15.43;;;10.52;;
52650;SDS011;38537;47.226;39.702;2022-10-26T07:23:08;20.48;;;11.93;;
52650;SDS011;38537;47.226;39.702;2022-10-26T07:25:39;16.45;;;10.70;;
52650;SDS011;38537;47.226;39.702;2022-10-26T07:28:07;17.42;;;11.52;;
52650;SDS011;38537;47.226;39.702;2022-10-26T07:30:37;12.38;;;9.55;;
52650;SDS011;38537;47.226;39.702;2022-10-26T07:33:07;18.23;;;11.38;;
52650;SDS011;38537;47.226;39.702;2022-10-26T07:35:39;14.85;;;11.10;;
52650;SDS011;38537;47.226;39.702;2022-10-26T07:38:07;15.15;;;11.25;;
52650;SDS011;38537;47.226;39.702;2022-10-26T07:40:35;13.48;;;10.02;;
52650;SDS011;38537;47.226;39.702;2022-10-26T07:43:03;19.48;;;11.75;;
52650;SDS011;38537;47.226;39.702;2022-10-26T07:45:34;18.67;;;10.98;;
52650;SDS011;38537;47.226;39.702;2022-10-26T07:48:02;27.23;;;12.38;;
52650;SDS011;38537;47.226;39.702;2022-10-26T07:50:32;18.50;;;11.50;;
52650;SDS011;38537;47.226;39.702;2022-10-26T07:52:59;17.35;;;11.38;;
52650;SDS011;38537;47.226;39.702;2022-10-26T07:55:26;17.52;;;10.85;;
52650;SDS011;38537;47.226;39.702;2022-10-26T07:57:54;16.33;;;10.43;;
52650;SDS011;38537;47.226;39.702;2022-10-26T08:00:23;22.80;;;12.25;;
52650;SDS011;38537;47.226;39.702;2022-10-26T08:02:51;15.57;;;10.63;;
52650;SDS011;38537;47.226;39.702;2022-10-26T08:05:18;14.13;;;10.20;;
52650;SDS011;38537;47.226;39.702;2022-10-26T08:07:45;19.95;;;11.07;;
52650;SDS011;38537;47.226;39.702;2022-10-26T08:10:14;13.93;;;9.90;;
52650;SDS011;38537;47.226;39.702;2022-10-26T08:12:42;14.82;;;9.73;;
52650;SDS011;38537;47.226;39.702;2022-10-26T08:15:09;12.45;;;9.27;;
52650;SDS011;38537;47.226;39.702;2022-10-26T08:17:37;14.48;;;9.82;;
52650;SDS011;38537;47.226;39.702;2022-10-26T08:20:05;15.15;;;8.70;;
52650;SDS011;38537;47.226;39.702;2022-10-26T08:22:33;14.07;;;9.32;;
52650;SDS011;38537;47.226;39.702;2022-10-26T08:25:01;15.48;;;10.48;;
52650;SDS011;38537;47.226;39.702;2022-10-26T08:27:30;16.10;;;10.18;;
52650;SDS011;38537;47.226;39.702;2022-10-26T08:29:58;14.60;;;10.48;;
52650;SDS011;38537;47.226;39.702;2022-10-26T08:32:26;14.02;;;10.60;;
52650;SDS011;38537;47.226;39.702;2022-10-26T08:34:54;15.55;;;10.55;;
52650;SDS011;38537;47.226;39.702;2022-10-26T08:37:21;12.98;;;9.60;;
52650;SDS011;38537;47.226;39.702;2022-10-26T08:39:49;10.60;;;8.80;;
52650;SDS011;38537;47.226;39.702;2022-10-26T08:42:22;13.63;;;8.93;;
52650;SDS011;38537;47.226;39.702;2022-10-26T08:45:25;14.77;;;8.98;;
52650;SDS011;38537;47.226;39.702;2022-10-26T08:48:03;12.27;;;8.43;;
52650;SDS011;38537;47.226;39.702;2022-10-26T08:50:38;11.60;;;8.88;;
52650;SDS011;38537;47.226;39.702;2022-10-26T08:53:23;14.85;;;8.80;;
52650;SDS011;38537;47.226;39.702;2022-10-26T08:55:53;13.25;;;10.32;;
52650;SDS011;38537;47.226;39.702;2022-10-26T08:58:27;13.40;;;10.48;;
52650;SDS011;38537;47.226;39.702;2022-10-26T09:01:02;11.05;;;8.48;;
52650;SDS011;38537;47.226;39.702;2022-10-26T09:03:31;12.38;;;9.00;;
52650;SDS011;38537;47.226;39.702;2022-10-26T09:08:49;13.88;;;9.55;;
52650;SDS011;38537;47.226;39.702;2022-10-26T09:14:31;11.00;;;7.80;;
52650;SDS011;38537;47.226;39.702;2022-10-26T09:17:06;11.38;;;8.43;;
52650;SDS011;38537;47.226;39.702;2022-10-26T09:22:41;8.88;;;6.95;;
52650;SDS011;38537;47.226;39.702;2022-10-26T09:27:49;12.07;;;7.13;;
52650;SDS011;38537;47.226;39.702;2022-10-26T09:30:38;7.38;;;5.72;;
52650;SDS011;38537;47.226;39.702;2022-10-26T09:33:15;7.75;;;6.00;;
52650;SDS011;38537;47.226;39.702;2022-10-26T09:35:46;9.95;;;6.20;;
52650;SDS011;38537;47.226;39.702;2022-10-26T09:38:31;8.77;;;5.90;;
52650;SDS011;38537;47.226;39.702;2022-10-26T09:41:04;8.00;;;5.50;;
52650;SDS011;38537;47.226;39.702;2022-10-26T09:46:45;7.57;;;5.30;;
52650;SDS011;38537;47.226;39.702;2022-10-26T09:51:43;8.50;;;5.38;;
52650;SDS011;38537;47.226;39.702;2022-10-26T09:54:16;8.25;;;5.72;;
52650;SDS011;38537;47.226;39.702;2022-10-26T09:56:46;7.72;;;5.45;;
52650;SDS011;38537;47.226;39.702;2022-10-26T09:59:18;9.95;;;5.90;;
52650;SDS011;38537;47.226;39.702;2022-10-26T10:01:48;9.65;;;6.00;;
52650;SDS011;38537;47.226;39.702;2022-10-26T10:04:17;9.68;;;5.35;;
52650;SDS011;38537;47.226;39.702;2022-10-26T10:06:47;8.52;;;5.40;;
52650;SDS011;38537;47.226;39.702;2022-10-26T10:09:17;10.38;;;5.43;;
52650;SDS011;38537;47.226;39.702;2022-10-26T10:11:48;9.52;;;5.80;;
52650;SDS011;38537;47.226;39.702;2022-10-26T10:14:22;8.50;;;5.47;;
52650;SDS011;38537;47.226;39.702;2022-10-26T10:17:03;8.23;;;5.43;;
52650;SDS011;38537;47.226;39.702;2022-10-26T10:19:35;7.10;;;5.40;;
52650;SDS011;38537;47.226;39.702;2022-10-26T10:24:34;8.27;;;5.50;;
52650;SDS011;38537;47.226;39.702;2022-10-26T10:29:44;9.80;;;5.68;;
52650;SDS011;38537;47.226;39.702;2022-10-26T10:32:16;12.07;;;6.40;;
52650;SDS011;38537;47.226;39.702;2022-10-26T10:34:49;8.18;;;5.60;;
52650;SDS011;38537;47.226;39.702;2022-10-26T10:37:34;9.90;;;5.82;;
52650;SDS011;38537;47.226;39.702;2022-10-26T10:40:17;9.10;;;5.72;;
52650;SDS011;38537;47.226;39.702;2022-10-26T10:42:47;12.50;;;5.72;;
52650;SDS011;38537;47.226;39.702;2022-10-26T10:45:25;9.40;;;5.50;;
52650;SDS011;38537;47.226;39.702;2022-10-26T10:47:57;12.05;;;6.43;;
52650;SDS011;38537;47.226;39.702;2022-10-26T10:50:28;8.93;;;5.45;;
52650;SDS011;38537;47.226;39.702;2022-10-26T11:08:12;10.23;;;5.70;;
52650;SDS011;38537;47.226;39.702;2022-10-26T11:10:48;16.10;;;6.05;;
52650;SDS011;38537;47.226;39.702;2022-10-26T11:13:28;10.82;;;6.47;;
52650;SDS011;38537;47.226;39.702;2022-10-26T11:16:03;9.95;;;5.80;;
52650;SDS011;38537;47.226;39.702;2022-10-26T11:18:41;13.23;;;6.13;;
52650;SDS011;38537;47.226;39.702;2022-10-26T11:21:18;10.80;;;6.00;;
52650;SDS011;38537;47.226;39.702;2022-10-26T11:23:56;9.32;;;5.60;;
52650;SDS011;38537;47.226;39.702;2022-10-26T11:26:47;10.75;;;5.97;;
52650;SDS011;38537;47.226;39.702;2022-10-26T11:29:42;16.35;;;11.27;;
52650;SDS011;38537;47.226;39.702;2022-10-26T11:32:15;12.98;;;7.43;;
52650;SDS011;38537;47.226;39.702;2022-10-26T11:46:04;10.65;;;7.13;;
52650;SDS011;38537;47.226;39.702;2022-10-26T11:48:43;11.40;;;7.68;;
52650;SDS011;38537;47.226;39.702;2022-10-26T11:54:24;12.98;;;8.27;;
52650;SDS011;38537;47.226;39.702;2022-10-26T11:56:57;11.82;;;6.85;;
52650;SDS011;38537;47.226;39.702;2022-10-26T11:59:31;10.68;;;7.65;;
52650;SDS011;38537;47.226;39.702;2022-10-26T12:02:03;10.63;;;6.60;;
52650;SDS011;38537;47.226;39.702;2022-10-26T12:04:36;8.63;;;6.18;;
52650;SDS011;38537;47.226;39.702;2022-10-26T12:07:07;9.27;;;6.35;;
52650;SDS011;38537;47.226;39.702;2022-10-26T12:09:41;11.00;;;6.43;;
52650;SDS011;38537;47.226;39.702;2022-10-26T12:18:27;8.75;;;6.45;;
52650;SDS011;38537;47.226;39.702;2022-10-26T12:21:24;11.02;;;7.50;;
52650;SDS011;38537;47.226;39.702;2022-10-26T12:23:59;10.38;;;6.97;;
52650;SDS011;38537;47.226;39.702;2022-10-26T12:34:03;8.30;;;6.57;;
52650;SDS011;38537;47.226;39.702;2022-10-26T12:39:31;9.02;;;6.63;;
52650;SDS011;38537;47.226;39.702;2022-10-26T12:44:40;8.90;;;6.20;;
52650;SDS011;38537;47.226;39.702;2022-10-26T13:00:16;12.60;;;8.13;;
52650;SDS011;38537;47.226;39.702;2022-10-26T13:08:20;8.63;;;6.50;;
52650;SDS011;38537;47.226;39.702;2022-10-26T13:13:56;13.43;;;6.82;;
52650;SDS011;38537;47.226;39.702;2022-10-26T13:16:28;12.00;;;8.10;;
52650;SDS011;38537;47.226;39.702;2022-10-26T13:18:56;12.07;;;8.43;;
52650;SDS011;38537;47.226;39.702;2022-10-26T13:21:25;11.43;;;8.70;;
52650;SDS011;38537;47.226;39.702;2022-10-26T13:26:23;12.85;;;8.43;;
52650;SDS011;38537;47.226;39.702;2022-10-26T13:28:53;14.75;;;8.50;;
52650;SDS011;38537;47.226;39.702;2022-10-26T13:36:43;10.27;;;7.75;;
52650;SDS011;38537;47.226;39.702;2022-10-26T13:39:26;12.65;;;8.32;;
52650;SDS011;38537;47.226;39.702;2022-10-26T13:42:09;9.57;;;7.82;;
52650;SDS011;38537;47.226;39.702;2022-10-26T13:50:05;13.95;;;10.48;;
52650;SDS011;38537;47.226;39.702;2022-10-26T13:52:38;11.70;;;9.05;;
52650;SDS011;38537;47.226;39.702;2022-10-26T14:01:03;10.45;;;7.75;;
52650;SDS011;38537;47.226;39.702;2022-10-26T14:03:47;13.95;;;8.68;;
52650;SDS011;38537;47.226;39.702;2022-10-26T14:06:26;13.75;;;9.52;;
52650;SDS011;38537;47.226;39.702;2022-10-26T14:08:59;13.15;;;9.80;;
52650;SDS011;38537;47.226;39.702;2022-10-26T14:11:32;14.07;;;10.48;;
52650;SDS011;38537;47.226;39.702;2022-10-26T14:14:03;11.80;;;9.77;;
52650;SDS011;38537;47.226;39.702;2022-10-26T14:16:31;13.60;;;10.02;;
52650;SDS011;38537;47.226;39.702;2022-10-26T14:19:00;14.85;;;10.18;;
52650;SDS011;38537;47.226;39.702;2022-10-26T14:21:28;10.27;;;8.52;;
52650;SDS011;38537;47.226;39.702;2022-10-26T14:23:57;11.00;;;8.85;;
52650;SDS011;38537;47.226;39.702;2022-10-26T14:26:26;13.23;;;9.55;;
52650;SDS011;38537;47.226;39.702;2022-10-26T14:29:27;11.50;;;9.20;;
52650;SDS011;38537;47.226;39.702;2022-10-26T14:31:53;11.60;;;8.88;;
52650;SDS011;38537;47.226;39.702;2022-10-26T14:34:21;14.00;;;8.63;;
52650;SDS011;38537;47.226;39.702;2022-10-26T14:37:01;11.98;;;9.02;;
52650;SDS011;38537;47.226;39.702;2022-10-26T14:39:32;12.50;;;9.15;;
52650;SDS011;38537;47.226;39.702;2022-10-26T14:42:18;12.63;;;8.48;;
52650;SDS011;38537;47.226;39.702;2022-10-26T14:53:35;13.23;;;9.80;;
52650;SDS011;38537;47.226;39.702;2022-10-26T14:59:11;13.30;;;9.05;;
52650;SDS011;38537;47.226;39.702;2022-10-26T15:05:14;11.52;;;9.32;;
52650;SDS011;38537;47.226;39.702;2022-10-26T15:07:50;14.30;;;10.60;;
52650;SDS011;38537;47.226;39.702;2022-10-26T15:13:17;11.68;;;9.20;;
52650;SDS011;38537;47.226;39.702;2022-10-26T15:15:50;14.82;;;9.98;;
52650;SDS011;38537;47.226;39.702;2022-10-26T15:18:27;14.43;;;9.98;;
52650;SDS011;38537;47.226;39.702;2022-10-26T15:20:58;13.52;;;10.48;;
52650;SDS011;38537;47.226;39.702;2022-10-26T15:23:26;13.80;;;10.35;;
52650;SDS011;38537;47.226;39.702;2022-10-26T15:25:57;14.93;;;10.88;;
52650;SDS011;38537;47.226;39.702;2022-10-26T15:28:36;14.93;;;10.55;;
52650;SDS011;38537;47.226;39.702;2022-10-26T15:33:41;13.18;;;10.27;;
52650;SDS011;38537;47.226;39.702;2022-10-26T15:36:18;14.18;;;9.73;;
52650;SDS011;38537;47.226;39.702;2022-10-26T15:38:47;14.90;;;11.65;;
52650;SDS011;38537;47.226;39.702;2022-10-26T15:43:49;13.88;;;10.52;;
52650;SDS011;38537;47.226;39.702;2022-10-26T15:46:19;16.58;;;11.40;;
52650;SDS011;38537;47.226;39.702;2022-10-26T15:48:54;15.50;;;10.52;;
52650;SDS011;38537;47.226;39.702;2022-10-26T15:51:23;13.40;;;10.40;;
52650;SDS011;38537;47.226;39.702;2022-10-26T15:53:52;14.35;;;11.07;;
52650;SDS011;38537;47.226;39.702;2022-10-26T15:56:22;15.45;;;11.40;;
52650;SDS011;38537;47.226;39.702;2022-10-26T15:58:55;15.07;;;10.65;;
52650;SDS011;38537;47.226;39.702;2022-10-26T16:01:25;15.57;;;11.20;;
52650;SDS011;38537;47.226;39.702;2022-10-26T16:03:54;14.30;;;10.73;;
52650;SDS011;38537;47.226;39.702;2022-10-26T16:06:32;13.75;;;10.82;;
52650;SDS011;38537;47.226;39.702;2022-10-26T16:09:01;14.23;;;11.05;;
52650;SDS011;38537;47.226;39.702;2022-10-26T16:11:36;13.85;;;10.32;;
52650;SDS011;38537;47.226;39.702;2022-10-26T16:14:04;16.17;;;11.20;;
52650;SDS011;38537;47.226;39.702;2022-10-26T16:16:33;11.75;;;9.90;;
52650;SDS011;38537;47.226;39.702;2022-10-26T16:19:00;13.40;;;10.60;;
52650;SDS011;38537;47.226;39.702;2022-10-26T16:21:52;12.50;;;9.73;;
52650;SDS011;38537;47.226;39.702;2022-10-26T16:24:19;15.10;;;11.20;;
52650;SDS011;38537;47.226;39.702;2022-10-26T16:26:47;13.18;;;11.05;;
52650;SDS011;38537;47.226;39.702;2022-10-26T16:29:14;11.82;;;9.88;;
52650;SDS011;38537;47.226;39.702;2022-10-26T16:31:42;14.77;;;10.88;;
52650;SDS011;38537;47.226;39.702;2022-10-26T16:34:10;11.52;;;9.18;;
52650;SDS011;38537;47.226;39.702;2022-10-26T16:36:37;10.00;;;7.47;;
52650;SDS011;38537;47.226;39.702;2022-10-26T16:39:04;11.15;;;7.78;;
52650;SDS011;38537;47.226;39.702;2022-10-26T16:41:32;11.52;;;7.70;;
52650;SDS011;38537;47.226;39.702;2022-10-26T16:44:02;14.07;;;10.18;;
52650;SDS011;38537;47.226;39.702;2022-10-26T16:46:29;14.30;;;10.88;;
52650;SDS011;38537;47.226;39.702;2022-10-26T16:48:56;14.70;;;10.07;;
52650;SDS011;38537;47.226;39.702;2022-10-26T16:51:26;11.27;;;9.50;;
52650;SDS011;38537;47.226;39.702;2022-10-26T16:53:55;10.88;;;8.75;;
52650;SDS011;38537;47.226;39.702;2022-10-26T16:56:24;16.52;;;10.15;;
52650;SDS011;38537;47.226;39.702;2022-10-26T16:58:53;11.20;;;8.63;;
52650;SDS011;38537;47.226;39.702;2022-10-26T17:01:22;11.20;;;8.93;;
52650;SDS011;38537;47.226;39.702;2022-10-26T17:03:50;11.27;;;8.90;;
52650;SDS011;38537;47.226;39.702;2022-10-26T17:06:18;15.77;;;10.68;;
52650;SDS011;38537;47.226;39.702;2022-10-26T17:08:46;11.65;;;8.50;;
52650;SDS011;38537;47.226;39.702;2022-10-26T17:11:15;12.10;;;9.57;;
52650;SDS011;38537;47.226;39.702;2022-10-26T17:13:46;14.02;;;9.98;;
52650;SDS011;38537;47.226;39.702;2022-10-26T17:16:19;10.60;;;8.15;;
52650;SDS011;38537;47.226;39.702;2022-10-26T17:18:48;12.30;;;8.80;;
52650;SDS011;38537;47.226;39.702;2022-10-26T17:21:17;11.73;;;8.60;;
52650;SDS011;38537;47.226;39.702;2022-10-26T17:23:48;11.57;;;8.68;;
52650;SDS011;38537;47.226;39.702;2022-10-26T17:26:15;10.80;;;8.70;;
52650;SDS011;38537;47.226;39.702;2022-10-26T17:28:42;14.68;;;8.23;;
52650;SDS011;38537;47.226;39.702;2022-10-26T17:31:11;11.52;;;8.38;;
52650;SDS011;38537;47.226;39.702;2022-10-26T17:33:42;11.75;;;8.23;;
52650;SDS011;38537;47.226;39.702;2022-10-26T17:36:11;9.38;;;7.78;;
52650;SDS011;38537;47.226;39.702;2022-10-26T17:38:39;11.60;;;8.70;;
52650;SDS011;38537;47.226;39.702;2022-10-26T17:41:11;10.77;;;8.52;;